Terminal Aerodrome Forecast
Issued by NWS Riverton, WY

Home | Current Version | Previous Version | Text Only | Print | Product List | Glossary On
Versions: 1 2 3 4 5 6 7 8 9 10 11 12 13
000
FTUS45 KRIW 262300
TAFRIW
TAF
KRIW 262320Z 2700/2724 VRB10G18KT P6SM -TSRA SCT040 OVC060CB
     FM270100 VRB06KT P6SM VCSH BKN070
     FM271200 VRB06KT P6SM FEW050 SCT080
     FM272000 VRB10G16KT P6SM VCSH SCT040 BKN070=

USA.gov is the U.S. government's official web portal to all federal, state and local government web resources and services.